sensor_id;sensor_type;location;lat;lon;timestamp;temperature;humidity
27567;DHT22;15006;48.584;9.186;2023-12-28T00:01:35;0.10;82.70
27567;DHT22;15006;48.584;9.186;2023-12-28T00:04:01;0.40;82.60
27567;DHT22;15006;48.584;9.186;2023-12-28T00:06:27;0.50;82.10
27567;DHT22;15006;48.584;9.186;2023-12-28T00:08:53;0.80;81.20
27567;DHT22;15006;48.584;9.186;2023-12-28T00:11:19;1.00;81.10
27567;DHT22;15006;48.584;9.186;2023-12-28T00:13:46;1.20;80.80
27567;DHT22;15006;48.584;9.186;2023-12-28T00:16:12;1.40;80.40
27567;DHT22;15006;48.584;9.186;2023-12-28T00:18:38;1.50;79.90
27567;DHT22;15006;48.584;9.186;2023-12-28T00:21:04;1.60;79.30
27567;DHT22;15006;48.584;9.186;2023-12-28T00:23:30;1.60;78.20
27567;DHT22;15006;48.584;9.186;2023-12-28T00:25:56;1.60;77.80
27567;DHT22;15006;48.584;9.186;2023-12-28T00:28:22;1.70;77.90
27567;DHT22;15006;48.584;9.186;2023-12-28T00:30:48;1.70;77.60
27567;DHT22;15006;48.584;9.186;2023-12-28T00:33:14;1.70;77.50
27567;DHT22;15006;48.584;9.186;2023-12-28T00:35:40;1.70;77.30
27567;DHT22;15006;48.584;9.186;2023-12-28T00:38:06;1.60;77.20
27567;DHT22;15006;48.584;9.186;2023-12-28T00:40:32;1.50;76.70
27567;DHT22;15006;48.584;9.186;2023-12-28T00:42:58;1.40;76.50
27567;DHT22;15006;48.584;9.186;2023-12-28T00:45:24;1.40;76.60
27567;DHT22;15006;48.584;9.186;2023-12-28T00:47:50;1.20;76.70
27567;DHT22;15006;48.584;9.186;2023-12-28T00:50:17;1.10;77.20
27567;DHT22;15006;48.584;9.186;2023-12-28T00:52:43;1.00;77.20
27567;DHT22;15006;48.584;9.186;2023-12-28T00:55:10;0.90;77.20
27567;DHT22;15006;48.584;9.186;2023-12-28T00:57:36;0.80;77.20
27567;DHT22;15006;48.584;9.186;2023-12-28T01:00:03;0.70;77.20
27567;DHT22;15006;48.584;9.186;2023-12-28T01:02:30;0.60;77.50
27567;DHT22;15006;48.584;9.186;2023-12-28T01:04:56;0.50;77.80
27567;DHT22;15006;48.584;9.186;2023-12-28T01:07:22;0.30;77.90
27567;DHT22;15006;48.584;9.186;2023-12-28T01:09:48;0.30;78.10
27567;DHT22;15006;48.584;9.186;2023-12-28T01:12:14;0.20;78.30
27567;DHT22;15006;48.584;9.186;2023-12-28T01:14:41;0.10;78.60
27567;DHT22;15006;48.584;9.186;2023-12-28T01:17:07;0.00;78.60
27567;DHT22;15006;48.584;9.186;2023-12-28T01:19:33;0.00;78.80
27567;DHT22;15006;48.584;9.186;2023-12-28T01:21:59;-0.10;79.00
27567;DHT22;15006;48.584;9.186;2023-12-28T01:24:25;-0.10;79.10
27567;DHT22;15006;48.584;9.186;2023-12-28T01:26:52;-0.20;79.30
27567;DHT22;15006;48.584;9.186;2023-12-28T01:29:18;-0.20;79.60
27567;DHT22;15006;48.584;9.186;2023-12-28T01:31:44;-0.20;79.90
27567;DHT22;15006;48.584;9.186;2023-12-28T01:34:10;-0.20;80.10
27567;DHT22;15006;48.584;9.186;2023-12-28T01:36:38;-0.30;79.90
27567;DHT22;15006;48.584;9.186;2023-12-28T01:39:07;-0.30;80.00
27567;DHT22;15006;48.584;9.186;2023-12-28T01:41:33;-0.30;80.00
27567;DHT22;15006;48.584;9.186;2023-12-28T01:43:59;-0.40;80.00
27567;DHT22;15006;48.584;9.186;2023-12-28T01:46:25;-0.40;80.00
27567;DHT22;15006;48.584;9.186;2023-12-28T01:48:51;-0.40;80.60
27567;DHT22;15006;48.584;9.186;2023-12-28T01:51:17;-0.50;80.80
27567;DHT22;15006;48.584;9.186;2023-12-28T01:53:43;-0.40;80.80
27567;DHT22;15006;48.584;9.186;2023-12-28T01:56:11;-0.50;80.60
27567;DHT22;15006;48.584;9.186;2023-12-28T01:58:38;-0.50;80.70
27567;DHT22;15006;48.584;9.186;2023-12-28T02:01:06;-0.50;80.80
27567;DHT22;15006;48.584;9.186;2023-12-28T02:03:32;-0.50;81.10
27567;DHT22;15006;48.584;9.186;2023-12-28T02:05:59;-0.50;81.10
27567;DHT22;15006;48.584;9.186;2023-12-28T02:08:26;-0.50;81.00
27567;DHT22;15006;48.584;9.186;2023-12-28T02:10:52;-0.50;80.80
27567;DHT22;15006;48.584;9.186;2023-12-28T02:13:21;-0.50;80.60
27567;DHT22;15006;48.584;9.186;2023-12-28T02:15:51;-0.50;80.40
27567;DHT22;15006;48.584;9.186;2023-12-28T02:18:50;-0.50;80.40
27567;DHT22;15006;48.584;9.186;2023-12-28T02:21:19;-0.60;80.30
27567;DHT22;15006;48.584;9.186;2023-12-28T02:23:49;-0.60;80.30
27567;DHT22;15006;48.584;9.186;2023-12-28T02:26:16;-0.70;80.40
27567;DHT22;15006;48.584;9.186;2023-12-28T02:28:43;-0.70;80.60
27567;DHT22;15006;48.584;9.186;2023-12-28T02:31:16;-0.70;81.50
27567;DHT22;15006;48.584;9.186;2023-12-28T02:33:54;-0.70;80.90
27567;DHT22;15006;48.584;9.186;2023-12-28T02:36:26;-0.70;80.90
27567;DHT22;15006;48.584;9.186;2023-12-28T02:38:53;-0.80;80.90
27567;DHT22;15006;48.584;9.186;2023-12-28T02:41:22;-0.80;81.00
27567;DHT22;15006;48.584;9.186;2023-12-28T02:43:48;-0.70;81.30
27567;DHT22;15006;48.584;9.186;2023-12-28T02:46:14;-0.70;81.70
27567;DHT22;15006;48.584;9.186;2023-12-28T02:48:40;-0.60;81.90
27567;DHT22;15006;48.584;9.186;2023-12-28T02:51:06;-0.50;81.70
27567;DHT22;15006;48.584;9.186;2023-12-28T02:53:32;-0.40;81.40
27567;DHT22;15006;48.584;9.186;2023-12-28T02:55:58;-0.30;81.20
27567;DHT22;15006;48.584;9.186;2023-12-28T02:58:24;-0.30;81.00
27567;DHT22;15006;48.584;9.186;2023-12-28T03:00:50;-0.20;80.80
27567;DHT22;15006;48.584;9.186;2023-12-28T03:03:16;-0.20;80.70
27567;DHT22;15006;48.584;9.186;2023-12-28T03:05:42;-0.20;80.80
27567;DHT22;15006;48.584;9.186;2023-12-28T03:08:08;-0.10;80.80
27567;DHT22;15006;48.584;9.186;2023-12-28T03:10:34;-0.10;80.70
27567;DHT22;15006;48.584;9.186;2023-12-28T03:12:59;-0.10;80.50
27567;DHT22;15006;48.584;9.186;2023-12-28T03:15:26;0.00;80.50
27567;DHT22;15006;48.584;9.186;2023-12-28T03:17:52;0.00;80.30
27567;DHT22;15006;48.584;9.186;2023-12-28T03:20:18;0.00;80.20
27567;DHT22;15006;48.584;9.186;2023-12-28T03:22:44;0.00;80.10
27567;DHT22;15006;48.584;9.186;2023-12-28T03:25:10;0.10;80.10
27567;DHT22;15006;48.584;9.186;2023-12-28T03:27:36;0.10;80.00
27567;DHT22;15006;48.584;9.186;2023-12-28T03:30:02;0.20;79.90
27567;DHT22;15006;48.584;9.186;2023-12-28T03:32:30;0.20;80.00
27567;DHT22;15006;48.584;9.186;2023-12-28T03:34:56;0.20;79.80
27567;DHT22;15006;48.584;9.186;2023-12-28T03:37:22;0.30;79.70
27567;DHT22;15006;48.584;9.186;2023-12-28T03:39:48;0.40;79.70
27567;DHT22;15006;48.584;9.186;2023-12-28T03:42:14;0.50;79.70
27567;DHT22;15006;48.584;9.186;2023-12-28T03:44:40;0.60;79.80
27567;DHT22;15006;48.584;9.186;2023-12-28T03:47:06;0.70;79.40
27567;DHT22;15006;48.584;9.186;2023-12-28T03:49:32;0.70;78.80
27567;DHT22;15006;48.584;9.186;2023-12-28T03:51:58;0.80;78.60
27567;DHT22;15006;48.584;9.186;2023-12-28T03:54:24;0.80;78.40
27567;DHT22;15006;48.584;9.186;2023-12-28T03:56:50;0.80;78.20
27567;DHT22;15006;48.584;9.186;2023-12-28T03:59:16;0.80;77.90
27567;DHT22;15006;48.584;9.186;2023-12-28T04:01:43;0.90;77.90
27567;DHT22;15006;48.584;9.186;2023-12-28T04:04:09;0.80;77.80
27567;DHT22;15006;48.584;9.186;2023-12-28T04:06:36;0.80;77.90
27567;DHT22;15006;48.584;9.186;2023-12-28T04:09:03;0.70;77.90
27567;DHT22;15006;48.584;9.186;2023-12-28T04:11:29;0.70;78.10
27567;DHT22;15006;48.584;9.186;2023-12-28T04:13:55;0.70;78.20
27567;DHT22;15006;48.584;9.186;2023-12-28T04:16:21;0.70;78.30
27567;DHT22;15006;48.584;9.186;2023-12-28T04:18:47;0.70;78.50
27567;DHT22;15006;48.584;9.186;2023-12-28T04:21:13;0.80;78.90
27567;DHT22;15006;48.584;9.186;2023-12-28T04:23:40;0.90;79.10
27567;DHT22;15006;48.584;9.186;2023-12-28T04:26:07;1.00;78.80
27567;DHT22;15006;48.584;9.186;2023-12-28T04:28:33;1.10;78.60
27567;DHT22;15006;48.584;9.186;2023-12-28T04:31:03;1.30;78.00
27567;DHT22;15006;48.584;9.186;2023-12-28T04:33:30;1.40;78.10
27567;DHT22;15006;48.584;9.186;2023-12-28T04:35:57;1.60;78.00
27567;DHT22;15006;48.584;9.186;2023-12-28T04:38:23;1.70;77.10
27567;DHT22;15006;48.584;9.186;2023-12-28T04:40:49;1.90;76.80
27567;DHT22;15006;48.584;9.186;2023-12-28T04:43:15;2.10;76.70
27567;DHT22;15006;48.584;9.186;2023-12-28T04:45:40;2.20;76.20
27567;DHT22;15006;48.584;9.186;2023-12-28T04:48:06;2.30;75.90
27567;DHT22;15006;48.584;9.186;2023-12-28T04:50:32;2.40;75.60
27567;DHT22;15006;48.584;9.186;2023-12-28T04:52:58;2.50;75.00
27567;DHT22;15006;48.584;9.186;2023-12-28T04:55:24;2.50;75.30
27567;DHT22;15006;48.584;9.186;2023-12-28T04:57:50;2.50;74.00
27567;DHT22;15006;48.584;9.186;2023-12-28T05:00:16;2.60;73.90
27567;DHT22;15006;48.584;9.186;2023-12-28T05:02:42;2.60;73.70
27567;DHT22;15006;48.584;9.186;2023-12-28T05:05:11;2.70;73.30
27567;DHT22;15006;48.584;9.186;2023-12-28T05:07:37;2.70;73.30
27567;DHT22;15006;48.584;9.186;2023-12-28T05:10:04;2.80;73.40
27567;DHT22;15006;48.584;9.186;2023-12-28T05:12:30;2.80;73.40
27567;DHT22;15006;48.584;9.186;2023-12-28T05:14:56;2.80;73.30
27567;DHT22;15006;48.584;9.186;2023-12-28T05:17:22;2.90;73.50
27567;DHT22;15006;48.584;9.186;2023-12-28T05:19:48;2.90;73.50
27567;DHT22;15006;48.584;9.186;2023-12-28T05:22:14;2.90;73.60
27567;DHT22;15006;48.584;9.186;2023-12-28T05:24:40;2.90;73.40
27567;DHT22;15006;48.584;9.186;2023-12-28T05:27:06;2.90;72.70
27567;DHT22;15006;48.584;9.186;2023-12-28T05:29:32;3.00;72.90
27567;DHT22;15006;48.584;9.186;2023-12-28T05:31:57;3.00;72.80
27567;DHT22;15006;48.584;9.186;2023-12-28T05:34:24;3.10;72.30
27567;DHT22;15006;48.584;9.186;2023-12-28T05:36:49;3.20;72.10
27567;DHT22;15006;48.584;9.186;2023-12-28T05:39:16;3.30;72.50
27567;DHT22;15006;48.584;9.186;2023-12-28T05:41:42;3.40;72.50
27567;DHT22;15006;48.584;9.186;2023-12-28T05:44:08;3.40;72.00
27567;DHT22;15006;48.584;9.186;2023-12-28T05:46:34;3.50;71.30
27567;DHT22;15006;48.584;9.186;2023-12-28T05:49:00;3.60;71.00
27567;DHT22;15006;48.584;9.186;2023-12-28T05:51:26;3.70;70.70
27567;DHT22;15006;48.584;9.186;2023-12-28T05:53:52;3.80;70.10
27567;DHT22;15006;48.584;9.186;2023-12-28T05:56:18;3.90;69.80
27567;DHT22;15006;48.584;9.186;2023-12-28T05:58:44;4.00;70.90
27567;DHT22;15006;48.584;9.186;2023-12-28T06:01:10;4.20;70.50
27567;DHT22;15006;48.584;9.186;2023-12-28T06:03:36;4.20;69.90
27567;DHT22;15006;48.584;9.186;2023-12-28T06:06:02;4.30;69.60
27567;DHT22;15006;48.584;9.186;2023-12-28T06:08:28;4.40;69.10
27567;DHT22;15006;48.584;9.186;2023-12-28T06:10:54;4.40;68.30
27567;DHT22;15006;48.584;9.186;2023-12-28T06:13:20;4.50;68.40
27567;DHT22;15006;48.584;9.186;2023-12-28T06:15:46;4.50;68.00
27567;DHT22;15006;48.584;9.186;2023-12-28T06:18:12;4.50;67.00
27567;DHT22;15006;48.584;9.186;2023-12-28T06:20:38;4.60;67.70
27567;DHT22;15006;48.584;9.186;2023-12-28T06:23:06;4.60;66.80
27567;DHT22;15006;48.584;9.186;2023-12-28T06:25:32;4.60;66.90
27567;DHT22;15006;48.584;9.186;2023-12-28T06:27:58;4.70;67.40
27567;DHT22;15006;48.584;9.186;2023-12-28T06:30:24;4.70;67.00
27567;DHT22;15006;48.584;9.186;2023-12-28T06:32:50;4.80;67.30
27567;DHT22;15006;48.584;9.186;2023-12-28T06:35:16;4.80;66.30
27567;DHT22;15006;48.584;9.186;2023-12-28T06:37:42;4.80;65.90
27567;DHT22;15006;48.584;9.186;2023-12-28T06:40:10;4.80;66.40
27567;DHT22;15006;48.584;9.186;2023-12-28T06:42:36;4.80;66.60
27567;DHT22;15006;48.584;9.186;2023-12-28T06:45:02;4.80;66.70
27567;DHT22;15006;48.584;9.186;2023-12-28T06:47:29;4.70;66.50
27567;DHT22;15006;48.584;9.186;2023-12-28T06:49:54;4.70;66.00
27567;DHT22;15006;48.584;9.186;2023-12-28T06:52:21;4.70;66.20
27567;DHT22;15006;48.584;9.186;2023-12-28T06:54:46;4.70;66.80
27567;DHT22;15006;48.584;9.186;2023-12-28T06:57:12;4.70;66.90
27567;DHT22;15006;48.584;9.186;2023-12-28T06:59:38;4.60;67.00
27567;DHT22;15006;48.584;9.186;2023-12-28T07:02:04;4.60;67.90
27567;DHT22;15006;48.584;9.186;2023-12-28T07:04:31;4.60;66.70
27567;DHT22;15006;48.584;9.186;2023-12-28T07:06:58;4.60;67.10
27567;DHT22;15006;48.584;9.186;2023-12-28T07:09:24;4.60;67.60
27567;DHT22;15006;48.584;9.186;2023-12-28T07:11:50;4.60;67.70
27567;DHT22;15006;48.584;9.186;2023-12-28T07:14:16;4.70;67.90
27567;DHT22;15006;48.584;9.186;2023-12-28T07:16:42;4.70;67.70
27567;DHT22;15006;48.584;9.186;2023-12-28T07:19:08;4.80;67.60
27567;DHT22;15006;48.584;9.186;2023-12-28T07:21:34;5.00;67.70
27567;DHT22;15006;48.584;9.186;2023-12-28T07:24:00;5.10;68.20
27567;DHT22;15006;48.584;9.186;2023-12-28T07:26:26;5.20;67.90
27567;DHT22;15006;48.584;9.186;2023-12-28T07:28:52;5.30;67.60
27567;DHT22;15006;48.584;9.186;2023-12-28T07:31:27;5.40;67.80
27567;DHT22;15006;48.584;9.186;2023-12-28T07:33:54;5.50;67.10
27567;DHT22;15006;48.584;9.186;2023-12-28T07:36:20;5.60;67.50
27567;DHT22;15006;48.584;9.186;2023-12-28T07:38:46;5.70;67.30
27567;DHT22;15006;48.584;9.186;2023-12-28T07:41:12;5.70;68.00
27567;DHT22;15006;48.584;9.186;2023-12-28T07:43:38;5.80;68.20
27567;DHT22;15006;48.584;9.186;2023-12-28T07:46:04;5.90;68.20
27567;DHT22;15006;48.584;9.186;2023-12-28T07:48:30;5.80;68.20
27567;DHT22;15006;48.584;9.186;2023-12-28T07:50:57;5.80;68.30
27567;DHT22;15006;48.584;9.186;2023-12-28T07:53:23;5.80;68.20
27567;DHT22;15006;48.584;9.186;2023-12-28T07:55:49;5.80;67.70
27567;DHT22;15006;48.584;9.186;2023-12-28T07:58:15;5.80;68.00
27567;DHT22;15006;48.584;9.186;2023-12-28T08:00:41;5.70;68.00
27567;DHT22;15006;48.584;9.186;2023-12-28T08:03:07;5.70;67.90
27567;DHT22;15006;48.584;9.186;2023-12-28T08:05:33;5.70;68.80
27567;DHT22;15006;48.584;9.186;2023-12-28T08:07:59;5.70;68.40
27567;DHT22;15006;48.584;9.186;2023-12-28T08:10:25;5.80;68.50
27567;DHT22;15006;48.584;9.186;2023-12-28T08:12:51;5.80;68.70
27567;DHT22;15006;48.584;9.186;2023-12-28T08:15:17;5.80;68.70
27567;DHT22;15006;48.584;9.186;2023-12-28T08:17:45;5.80;68.60
27567;DHT22;15006;48.584;9.186;2023-12-28T08:20:11;5.90;68.60
27567;DHT22;15006;48.584;9.186;2023-12-28T08:22:37;5.90;68.90
27567;DHT22;15006;48.584;9.186;2023-12-28T08:25:04;5.90;69.90
27567;DHT22;15006;48.584;9.186;2023-12-28T08:27:30;6.00;70.00
27567;DHT22;15006;48.584;9.186;2023-12-28T08:29:56;6.00;70.00
27567;DHT22;15006;48.584;9.186;2023-12-28T08:32:22;6.00;69.80
27567;DHT22;15006;48.584;9.186;2023-12-28T08:34:48;6.10;69.80
27567;DHT22;15006;48.584;9.186;2023-12-28T08:37:14;6.10;69.70
27567;DHT22;15006;48.584;9.186;2023-12-28T08:39:40;6.10;69.20
27567;DHT22;15006;48.584;9.186;2023-12-28T08:42:06;6.20;69.40
27567;DHT22;15006;48.584;9.186;2023-12-28T08:44:32;6.30;69.00
27567;DHT22;15006;48.584;9.186;2023-12-28T08:46:59;6.30;68.60
27567;DHT22;15006;48.584;9.186;2023-12-28T08:49:25;6.50;68.60
27567;DHT22;15006;48.584;9.186;2023-12-28T08:51:51;6.60;68.90
27567;DHT22;15006;48.584;9.186;2023-12-28T08:54:17;6.60;68.20
27567;DHT22;15006;48.584;9.186;2023-12-28T08:56:43;6.70;68.30
27567;DHT22;15006;48.584;9.186;2023-12-28T08:59:09;6.80;68.60
27567;DHT22;15006;48.584;9.186;2023-12-28T09:01:35;6.80;68.40
27567;DHT22;15006;48.584;9.186;2023-12-28T09:04:01;6.90;68.10
27567;DHT22;15006;48.584;9.186;2023-12-28T09:06:27;6.90;68.00
27567;DHT22;15006;48.584;9.186;2023-12-28T09:08:53;6.90;67.70
27567;DHT22;15006;48.584;9.186;2023-12-28T09:11:22;7.00;67.80
27567;DHT22;15006;48.584;9.186;2023-12-28T09:13:48;7.00;67.60
27567;DHT22;15006;48.584;9.186;2023-12-28T09:16:15;7.00;68.00
27567;DHT22;15006;48.584;9.186;2023-12-28T09:18:41;7.00;68.40
27567;DHT22;15006;48.584;9.186;2023-12-28T09:21:08;7.00;68.90
27567;DHT22;15006;48.584;9.186;2023-12-28T09:23:35;7.00;69.40
27567;DHT22;15006;48.584;9.186;2023-12-28T09:26:03;7.00;69.50
27567;DHT22;15006;48.584;9.186;2023-12-28T09:28:30;7.00;70.70
27567;DHT22;15006;48.584;9.186;2023-12-28T09:30:57;6.90;70.40
27567;DHT22;15006;48.584;9.186;2023-12-28T09:33:23;6.90;70.60
27567;DHT22;15006;48.584;9.186;2023-12-28T09:35:49;6.90;69.70
27567;DHT22;15006;48.584;9.186;2023-12-28T09:38:15;6.90;69.20
27567;DHT22;15006;48.584;9.186;2023-12-28T09:40:42;6.80;69.00
27567;DHT22;15006;48.584;9.186;2023-12-28T09:43:24;6.80;68.40
27567;DHT22;15006;48.584;9.186;2023-12-28T09:45:52;6.80;68.30
27567;DHT22;15006;48.584;9.186;2023-12-28T09:48:21;6.90;69.00
27567;DHT22;15006;48.584;9.186;2023-12-28T09:50:52;6.90;68.40
27567;DHT22;15006;48.584;9.186;2023-12-28T09:53:26;7.00;67.80
27567;DHT22;15006;48.584;9.186;2023-12-28T09:55:52;7.10;67.30
27567;DHT22;15006;48.584;9.186;2023-12-28T09:58:20;7.10;67.50
27567;DHT22;15006;48.584;9.186;2023-12-28T10:00:49;7.20;66.40
27567;DHT22;15006;48.584;9.186;2023-12-28T10:03:16;7.30;66.30
27567;DHT22;15006;48.584;9.186;2023-12-28T10:05:44;7.30;65.30
27567;DHT22;15006;48.584;9.186;2023-12-28T10:08:12;7.40;64.70
27567;DHT22;15006;48.584;9.186;2023-12-28T10:10:42;7.50;64.80
27567;DHT22;15006;48.584;9.186;2023-12-28T10:13:10;7.60;64.90
27567;DHT22;15006;48.584;9.186;2023-12-28T10:15:37;7.70;63.60
27567;DHT22;15006;48.584;9.186;2023-12-28T10:18:04;7.80;63.70
27567;DHT22;15006;48.584;9.186;2023-12-28T10:20:31;7.80;63.50
27567;DHT22;15006;48.584;9.186;2023-12-28T10:23:00;7.90;63.90
27567;DHT22;15006;48.584;9.186;2023-12-28T10:25:27;8.00;62.40
27567;DHT22;15006;48.584;9.186;2023-12-28T10:27:54;8.10;62.90
27567;DHT22;15006;48.584;9.186;2023-12-28T10:30:21;8.20;62.90
27567;DHT22;15006;48.584;9.186;2023-12-28T10:32:47;8.20;62.80
27567;DHT22;15006;48.584;9.186;2023-12-28T10:35:14;8.20;62.80
27567;DHT22;15006;48.584;9.186;2023-12-28T10:37:40;8.30;63.40
27567;DHT22;15006;48.584;9.186;2023-12-28T10:40:14;8.40;63.40
27567;DHT22;15006;48.584;9.186;2023-12-28T10:42:46;8.40;63.60
27567;DHT22;15006;48.584;9.186;2023-12-28T10:45:18;8.40;61.10
27567;DHT22;15006;48.584;9.186;2023-12-28T10:48:04;8.40;62.20
27567;DHT22;15006;48.584;9.186;2023-12-28T10:59:17;8.50;62.60
27567;DHT22;15006;48.584;9.186;2023-12-28T11:01:51;8.40;62.50
27567;DHT22;15006;48.584;9.186;2023-12-28T11:04:25;8.50;63.50
27567;DHT22;15006;48.584;9.186;2023-12-28T11:06:56;8.50;63.90
27567;DHT22;15006;48.584;9.186;2023-12-28T11:09:24;8.50;63.90
27567;DHT22;15006;48.584;9.186;2023-12-28T11:11:53;8.50;64.40
27567;DHT22;15006;48.584;9.186;2023-12-28T11:14:19;8.50;64.80
27567;DHT22;15006;48.584;9.186;2023-12-28T11:16:45;8.60;65.10
27567;DHT22;15006;48.584;9.186;2023-12-28T11:19:12;8.60;65.40
27567;DHT22;15006;48.584;9.186;2023-12-28T11:21:38;8.60;65.50
27567;DHT22;15006;48.584;9.186;2023-12-28T11:24:05;8.70;66.10
27567;DHT22;15006;48.584;9.186;2023-12-28T11:26:32;8.70;66.50
27567;DHT22;15006;48.584;9.186;2023-12-28T11:29:02;8.70;66.50
27567;DHT22;15006;48.584;9.186;2023-12-28T11:31:32;8.80;66.60
27567;DHT22;15006;48.584;9.186;2023-12-28T11:34:04;8.80;67.20
27567;DHT22;15006;48.584;9.186;2023-12-28T11:36:32;8.80;66.70
27567;DHT22;15006;48.584;9.186;2023-12-28T11:39:06;8.80;67.50
27567;DHT22;15006;48.584;9.186;2023-12-28T11:41:33;8.90;66.90
27567;DHT22;15006;48.584;9.186;2023-12-28T11:44:05;8.90;66.70
27567;DHT22;15006;48.584;9.186;2023-12-28T11:46:32;8.90;66.90
27567;DHT22;15006;48.584;9.186;2023-12-28T11:49:05;8.90;66.90
27567;DHT22;15006;48.584;9.186;2023-12-28T11:51:35;8.90;67.40
27567;DHT22;15006;48.584;9.186;2023-12-28T11:54:03;8.90;67.40
27567;DHT22;15006;48.584;9.186;2023-12-28T11:56:30;8.90;67.60
27567;DHT22;15006;48.584;9.186;2023-12-28T11:58:57;8.90;67.40
27567;DHT22;15006;48.584;9.186;2023-12-28T12:01:24;8.90;67.70
27567;DHT22;15006;48.584;9.186;2023-12-28T12:03:50;8.90;68.00
27567;DHT22;15006;48.584;9.186;2023-12-28T12:06:16;9.00;68.30
27567;DHT22;15006;48.584;9.186;2023-12-28T12:08:46;9.00;68.10
27567;DHT22;15006;48.584;9.186;2023-12-28T12:11:12;9.10;67.80
27567;DHT22;15006;48.584;9.186;2023-12-28T12:13:38;9.10;67.90
27567;DHT22;15006;48.584;9.186;2023-12-28T12:16:04;9.10;68.10
27567;DHT22;15006;48.584;9.186;2023-12-28T12:18:32;9.10;68.30
27567;DHT22;15006;48.584;9.186;2023-12-28T12:20:58;9.10;68.20
27567;DHT22;15006;48.584;9.186;2023-12-28T12:23:24;9.10;68.00
27567;DHT22;15006;48.584;9.186;2023-12-28T12:25:51;9.10;68.40
27567;DHT22;15006;48.584;9.186;2023-12-28T12:28:17;9.00;68.40
27567;DHT22;15006;48.584;9.186;2023-12-28T12:31:10;9.00;68.40
27567;DHT22;15006;48.584;9.186;2023-12-28T12:33:37;9.00;68.20
27567;DHT22;15006;48.584;9.186;2023-12-28T12:36:04;9.00;68.80
27567;DHT22;15006;48.584;9.186;2023-12-28T12:38:32;8.90;69.20
27567;DHT22;15006;48.584;9.186;2023-12-28T12:40:58;8.90;69.30
27567;DHT22;15006;48.584;9.186;2023-12-28T12:43:24;8.90;69.50
27567;DHT22;15006;48.584;9.186;2023-12-28T12:45:51;8.80;69.70
27567;DHT22;15006;48.584;9.186;2023-12-28T12:48:17;8.80;70.00
27567;DHT22;15006;48.584;9.186;2023-12-28T12:50:45;8.80;70.30
27567;DHT22;15006;48.584;9.186;2023-12-28T12:53:11;8.80;70.70
27567;DHT22;15006;48.584;9.186;2023-12-28T12:55:38;8.70;70.30
27567;DHT22;15006;48.584;9.186;2023-12-28T12:58:12;8.80;70.60
27567;DHT22;15006;48.584;9.186;2023-12-28T13:00:39;8.70;70.60
27567;DHT22;15006;48.584;9.186;2023-12-28T13:03:08;8.70;70.70
27567;DHT22;15006;48.584;9.186;2023-12-28T13:05:36;8.60;70.80
27567;DHT22;15006;48.584;9.186;2023-12-28T13:08:04;8.60;71.10
27567;DHT22;15006;48.584;9.186;2023-12-28T13:10:31;8.60;71.30
27567;DHT22;15006;48.584;9.186;2023-12-28T13:12:57;8.60;71.60
27567;DHT22;15006;48.584;9.186;2023-12-28T13:15:23;8.60;71.70
27567;DHT22;15006;48.584;9.186;2023-12-28T13:17:49;8.50;72.00
27567;DHT22;15006;48.584;9.186;2023-12-28T13:20:15;8.50;72.70
27567;DHT22;15006;48.584;9.186;2023-12-28T13:22:41;8.50;72.90
27567;DHT22;15006;48.584;9.186;2023-12-28T13:25:08;8.50;73.10
27567;DHT22;15006;48.584;9.186;2023-12-28T13:27:34;8.50;73.30
27567;DHT22;15006;48.584;9.186;2023-12-28T13:30:00;8.40;73.20
27567;DHT22;15006;48.584;9.186;2023-12-28T13:32:26;8.40;73.40
27567;DHT22;15006;48.584;9.186;2023-12-28T13:34:52;8.40;73.60
27567;DHT22;15006;48.584;9.186;2023-12-28T13:37:18;8.40;73.90
27567;DHT22;15006;48.584;9.186;2023-12-28T13:39:44;8.40;74.10
27567;DHT22;15006;48.584;9.186;2023-12-28T13:42:10;8.40;74.10
27567;DHT22;15006;48.584;9.186;2023-12-28T13:44:36;8.30;74.30
27567;DHT22;15006;48.584;9.186;2023-12-28T13:47:02;8.30;74.60
27567;DHT22;15006;48.584;9.186;2023-12-28T13:49:29;8.20;75.00
27567;DHT22;15006;48.584;9.186;2023-12-28T13:51:55;8.20;75.30
27567;DHT22;15006;48.584;9.186;2023-12-28T13:54:21;8.10;75.50
27567;DHT22;15006;48.584;9.186;2023-12-28T13:56:47;8.10;75.90
27567;DHT22;15006;48.584;9.186;2023-12-28T13:59:14;8.00;76.40
27567;DHT22;15006;48.584;9.186;2023-12-28T14:01:40;8.00;76.80
27567;DHT22;15006;48.584;9.186;2023-12-28T14:04:06;7.90;78.10
27567;DHT22;15006;48.584;9.186;2023-12-28T14:06:32;7.80;77.80
27567;DHT22;15006;48.584;9.186;2023-12-28T14:08:59;7.80;78.20
27567;DHT22;15006;48.584;9.186;2023-12-28T14:11:25;7.80;78.50
27567;DHT22;15006;48.584;9.186;2023-12-28T14:13:51;7.60;78.90
27567;DHT22;15006;48.584;9.186;2023-12-28T14:16:16;7.60;79.40
27567;DHT22;15006;48.584;9.186;2023-12-28T14:18:42;7.50;79.70
27567;DHT22;15006;48.584;9.186;2023-12-28T14:21:09;7.50;80.20
27567;DHT22;15006;48.584;9.186;2023-12-28T14:23:36;7.40;80.60
27567;DHT22;15006;48.584;9.186;2023-12-28T14:26:04;7.40;80.90
27567;DHT22;15006;48.584;9.186;2023-12-28T14:28:35;7.40;81.60
27567;DHT22;15006;48.584;9.186;2023-12-28T14:31:02;7.30;81.70
27567;DHT22;15006;48.584;9.186;2023-12-28T14:33:28;7.30;82.00
27567;DHT22;15006;48.584;9.186;2023-12-28T14:35:55;7.30;82.00
27567;DHT22;15006;48.584;9.186;2023-12-28T14:38:21;7.30;83.00
27567;DHT22;15006;48.584;9.186;2023-12-28T14:40:47;7.20;82.50
27567;DHT22;15006;48.584;9.186;2023-12-28T14:43:15;7.20;82.70
27567;DHT22;15006;48.584;9.186;2023-12-28T14:45:41;7.20;82.90
27567;DHT22;15006;48.584;9.186;2023-12-28T14:48:09;7.10;83.20
27567;DHT22;15006;48.584;9.186;2023-12-28T14:50:35;7.10;83.60
27567;DHT22;15006;48.584;9.186;2023-12-28T14:53:01;7.00;83.90
27567;DHT22;15006;48.584;9.186;2023-12-28T14:55:27;7.00;84.30
27567;DHT22;15006;48.584;9.186;2023-12-28T14:57:53;7.00;84.60
27567;DHT22;15006;48.584;9.186;2023-12-28T15:00:19;6.90;85.00
27567;DHT22;15006;48.584;9.186;2023-12-28T15:02:46;6.90;85.50
27567;DHT22;15006;48.584;9.186;2023-12-28T15:05:12;6.90;85.70
27567;DHT22;15006;48.584;9.186;2023-12-28T15:07:39;6.90;86.00
27567;DHT22;15006;48.584;9.186;2023-12-28T15:10:05;6.80;86.30
27567;DHT22;15006;48.584;9.186;2023-12-28T15:12:34;6.70;86.80
27567;DHT22;15006;48.584;9.186;2023-12-28T15:15:00;6.70;87.10
27567;DHT22;15006;48.584;9.186;2023-12-28T15:17:27;6.60;87.40
27567;DHT22;15006;48.584;9.186;2023-12-28T15:19:53;6.60;87.50
27567;DHT22;15006;48.584;9.186;2023-12-28T15:22:19;6.60;87.70
27567;DHT22;15006;48.584;9.186;2023-12-28T15:24:45;6.60;87.90
27567;DHT22;15006;48.584;9.186;2023-12-28T15:27:11;6.60;88.00
27567;DHT22;15006;48.584;9.186;2023-12-28T15:29:38;6.50;88.00
27567;DHT22;15006;48.584;9.186;2023-12-28T15:32:04;6.50;88.10
27567;DHT22;15006;48.584;9.186;2023-12-28T15:34:30;6.50;88.10
27567;DHT22;15006;48.584;9.186;2023-12-28T15:36:56;6.40;88.10
27567;DHT22;15006;48.584;9.186;2023-12-28T15:39:22;6.40;88.30
27567;DHT22;15006;48.584;9.186;2023-12-28T15:41:49;6.30;88.60
27567;DHT22;15006;48.584;9.186;2023-12-28T15:44:15;6.30;89.00
27567;DHT22;15006;48.584;9.186;2023-12-28T15:46:41;6.30;89.30
27567;DHT22;15006;48.584;9.186;2023-12-28T15:49:08;6.20;89.30
27567;DHT22;15006;48.584;9.186;2023-12-28T15:51:34;6.20;89.50